Time;durP1;ratioP1;P1;durP2;ratioP2;P2;SDS_P1;SDS_P2;PMS_P1;PMS_P2;Temp;Humidity;BMP_temperature;BMP_pressure;BME280_temperature;BME280_humidity;BME280_pressure;Samples;Min_cycle;Max_cycle;Signal;HPM_P1;HPM_P2
2021/11/26 00:01:29;;;;;;;26.40;15.35;;;;;;;;;;4896637;29;20385;-63
2021/11/26 00:03:55;;;;;;;27.23;15.30;;;;;;;;;;4896628;29;20029;-64
2021/11/26 00:06:21;;;;;;;25.58;14.55;;;;;;;;;;4896340;29;20037;-65
2021/11/26 00:08:47;;;;;;;26.63;15.05;;;;;;;;;;4896834;29;20040;-63
2021/11/26 00:11:13;;;;;;;24.92;14.48;;;;;;;;;;4896496;29;20111;-63
2021/11/26 00:13:43;;;;;;;26.50;15.65;;;;;;;;;;4896278;29;20083;-63
2021/11/26 00:16:15;;;;;;;27.80;15.52;;;;;;;;;;4895857;29;20041;-65
2021/11/26 00:18:43;;;;;;;26.17;14.93;;;;;;;;;;4896540;29;20029;-63
2021/11/26 00:21:09;;;;;;;29.92;15.55;;;;;;;;;;4896319;29;20024;-64
2021/11/26 00:23:35;;;;;;;24.58;14.90;;;;;;;;;;4896271;29;20055;-63
2021/11/26 00:26:01;;;;;;;28.45;16.25;;;;;;;;;;4896233;29;20051;-63
2021/11/26 00:28:27;;;;;;;27.15;15.25;;;;;;;;;;4895735;29;20116;-62
2021/11/26 00:30:54;;;;;;;24.67;14.98;;;;;;;;;;4896082;29;20039;-64
2021/11/26 00:33:21;;;;;;;24.92;14.10;;;;;;;;;;4896535;29;20052;-64
2021/11/26 00:35:47;;;;;;;26.17;15.30;;;;;;;;;;4896330;29;20029;-63
2021/11/26 00:38:13;;;;;;;25.67;13.50;;;;;;;;;;4895875;29;20036;-64
2021/11/26 00:40:39;;;;;;;24.65;14.07;;;;;;;;;;4895622;29;20108;-64
2021/11/26 00:43:06;;;;;;;24.40;14.25;;;;;;;;;;4896040;29;20040;-63
2021/11/26 00:45:32;;;;;;;23.98;14.32;;;;;;;;;;4895725;29;20091;-66
2021/11/26 00:47:58;;;;;;;22.85;13.75;;;;;;;;;;4895837;29;20028;-64
2021/11/26 00:50:25;;;;;;;27.30;15.57;;;;;;;;;;4896115;29;20532;-65
2021/11/26 00:52:51;;;;;;;24.65;15.05;;;;;;;;;;4895817;29;20111;-63
2021/11/26 00:55:17;;;;;;;23.42;13.93;;;;;;;;;;4895875;29;20025;-65
2021/11/26 00:57:43;;;;;;;28.27;14.55;;;;;;;;;;4895718;29;20065;-65
2021/11/26 01:00:11;;;;;;;22.35;14.00;;;;;;;;;;4895679;29;20377;-64
2021/11/26 01:02:38;;;;;;;25.58;14.02;;;;;;;;;;4896076;29;20036;-64
2021/11/26 01:05:05;;;;;;;23.73;14.32;;;;;;;;;;4895795;29;20385;-65
2021/11/26 01:07:31;;;;;;;22.80;13.18;;;;;;;;;;4895713;29;20036;-63
2021/11/26 01:09:57;;;;;;;27.25;14.30;;;;;;;;;;4895744;29;20029;-63
2021/11/26 01:12:23;;;;;;;21.40;12.48;;;;;;;;;;4895698;29;20025;-63
2021/11/26 01:14:49;;;;;;;22.67;13.13;;;;;;;;;;4895968;29;20036;-64
2021/11/26 01:17:15;;;;;;;23.85;13.85;;;;;;;;;;4895722;29;20041;-64
2021/11/26 01:19:43;;;;;;;25.77;13.48;;;;;;;;;;4896147;29;20060;-65
2021/11/26 01:22:09;;;;;;;21.27;13.23;;;;;;;;;;4895935;29;20024;-64
2021/11/26 01:24:35;;;;;;;22.02;13.20;;;;;;;;;;4896047;29;20037;-65
2021/11/26 01:27:06;;;;;;;21.52;12.93;;;;;;;;;;4896189;29;20056;-64
2021/11/26 01:29:32;;;;;;;22.10;13.23;;;;;;;;;;4895986;29;20040;-65
2021/11/26 01:31:58;;;;;;;23.67;13.85;;;;;;;;;;4895815;29;20077;-64
2021/11/26 01:34:24;;;;;;;22.85;13.23;;;;;;;;;;4895695;29;20028;-63
2021/11/26 01:36:50;;;;;;;21.63;12.48;;;;;;;;;;4895599;29;20117;-64
2021/11/26 01:39:16;;;;;;;23.13;13.25;;;;;;;;;;4895571;29;20057;-64
2021/11/26 01:41:43;;;;;;;22.33;13.40;;;;;;;;;;4895130;29;20081;-64
2021/11/26 01:44:10;;;;;;;24.52;13.82;;;;;;;;;;4895217;29;20454;-65
2021/11/26 01:46:43;;;;;;;23.27;12.88;;;;;;;;;;4895697;29;20040;-63
2021/11/26 01:49:09;;;;;;;24.45;13.15;;;;;;;;;;4895315;29;20460;-64
2021/11/26 01:51:36;;;;;;;25.67;14.25;;;;;;;;;;4895322;29;20064;-64
2021/11/26 01:54:02;;;;;;;22.23;12.93;;;;;;;;;;4895443;29;20032;-64
2021/11/26 01:56:28;;;;;;;22.95;13.82;;;;;;;;;;4895309;29;20040;-64
2021/11/26 01:58:54;;;;;;;21.67;12.50;;;;;;;;;;4894930;29;20024;-64
2021/11/26 02:01:21;;;;;;;22.20;12.45;;;;;;;;;;4898733;29;20039;-64
2021/11/26 02:03:47;;;;;;;22.52;12.50;;;;;;;;;;4898863;29;20029;-64
2021/11/26 02:06:13;;;;;;;23.92;13.38;;;;;;;;;;4898879;29;20032;-64
2021/11/26 02:08:39;;;;;;;22.52;12.57;;;;;;;;;;4898479;29;20063;-63
2021/11/26 02:11:05;;;;;;;20.58;12.07;;;;;;;;;;4898459;29;20032;-65
2021/11/26 02:13:31;;;;;;;21.95;12.98;;;;;;;;;;4898553;29;20025;-64
2021/11/26 02:16:02;;;;;;;22.88;12.82;;;;;;;;;;4898403;29;20167;-65
2021/11/26 02:18:29;;;;;;;21.77;12.38;;;;;;;;;;4898479;29;20112;-64
2021/11/26 02:20:55;;;;;;;22.08;12.25;;;;;;;;;;4898617;29;20585;-64
2021/11/26 02:23:21;;;;;;;20.70;11.68;;;;;;;;;;4898564;29;20060;-64
2021/11/26 02:25:47;;;;;;;23.23;12.55;;;;;;;;;;4897939;29;20072;-63
2021/11/26 02:28:15;;;;;;;21.05;12.65;;;;;;;;;;4897877;29;20102;-63
2021/11/26 02:30:41;;;;;;;20.38;12.05;;;;;;;;;;4897751;29;20123;-63
2021/11/26 02:33:10;;;;;;;21.48;12.50;;;;;;;;;;4898369;29;20386;-63
2021/11/26 02:35:38;;;;;;;19.73;12.10;;;;;;;;;;4898418;29;20464;-63
2021/11/26 02:38:06;;;;;;;20.42;12.32;;;;;;;;;;4898483;29;20470;-64
2021/11/26 02:40:34;;;;;;;20.58;11.95;;;;;;;;;;4898115;29;20043;-64
2021/11/26 02:43:00;;;;;;;20.98;12.52;;;;;;;;;;4898121;29;20025;-64
2021/11/26 02:45:27;;;;;;;22.65;12.20;;;;;;;;;;4898039;29;20425;-63
2021/11/26 02:47:53;;;;;;;20.88;12.57;;;;;;;;;;4898010;29;20037;-63
2021/11/26 02:50:21;;;;;;;20.85;12.02;;;;;;;;;;4897929;29;20035;-65
2021/11/26 02:52:47;;;;;;;20.52;12.23;;;;;;;;;;4897635;29;20047;-63
2021/11/26 02:55:15;;;;;;;22.67;13.02;;;;;;;;;;4897802;29;20084;-62
2021/11/26 02:57:41;;;;;;;20.08;13.27;;;;;;;;;;4897672;29;20561;-63
2021/11/26 03:00:08;;;;;;;21.98;13.00;;;;;;;;;;4897901;29;20048;-65
2021/11/26 03:02:35;;;;;;;21.58;13.02;;;;;;;;;;4899399;29;20056;-65
2021/11/26 03:05:01;;;;;;;21.40;12.95;;;;;;;;;;4898828;29;20100;-65
2021/11/26 03:07:27;;;;;;;22.55;13.20;;;;;;;;;;4897694;29;20439;-65
2021/11/26 03:09:53;;;;;;;22.95;13.38;;;;;;;;;;4897527;29;20051;-65
2021/11/26 03:12:19;;;;;;;26.88;13.70;;;;;;;;;;4896977;29;20056;-64
2021/11/26 03:14:45;;;;;;;21.00;12.43;;;;;;;;;;4897385;29;20036;-63
2021/11/26 03:17:11;;;;;;;22.05;13.23;;;;;;;;;;4896930;29;20068;-63
2021/11/26 03:19:37;;;;;;;19.95;11.95;;;;;;;;;;4897388;29;20043;-65
2021/11/26 03:22:04;;;;;;;22.05;12.70;;;;;;;;;;4897000;29;20039;-63
2021/11/26 03:24:30;;;;;;;22.02;12.90;;;;;;;;;;4896964;29;20071;-64
2021/11/26 03:26:56;;;;;;;22.88;13.25;;;;;;;;;;4897478;29;20024;-64
2021/11/26 03:29:22;;;;;;;21.67;13.25;;;;;;;;;;4897162;29;20039;-64
2021/11/26 03:31:48;;;;;;;22.02;13.02;;;;;;;;;;4896830;29;20025;-65
2021/11/26 03:34:14;;;;;;;19.85;12.10;;;;;;;;;;4897229;29;20516;-63
2021/11/26 03:36:40;;;;;;;20.88;11.88;;;;;;;;;;4896872;29;20517;-65
2021/11/26 03:39:06;;;;;;;19.95;11.48;;;;;;;;;;4896894;29;20393;-62
2021/11/26 03:41:32;;;;;;;20.25;11.95;;;;;;;;;;4896749;29;20032;-64
2021/11/26 03:43:58;;;;;;;20.10;12.20;;;;;;;;;;4896768;29;20029;-64
2021/11/26 03:46:25;;;;;;;18.10;10.77;;;;;;;;;;4896650;29;20077;-63
2021/11/26 03:48:51;;;;;;;22.15;12.68;;;;;;;;;;4896795;29;20068;-64
2021/11/26 03:51:17;;;;;;;18.98;12.40;;;;;;;;;;4896613;29;20037;-64
2021/11/26 03:53:43;;;;;;;20.48;11.68;;;;;;;;;;4896804;29;20503;-65
2021/11/26 03:56:09;;;;;;;22.92;13.48;;;;;;;;;;4896386;29;20051;-64
2021/11/26 03:58:35;;;;;;;22.75;13.63;;;;;;;;;;4896735;29;20024;-64
2021/11/26 04:01:01;;;;;;;21.52;12.60;;;;;;;;;;4896654;29;20564;-64
2021/11/26 04:03:27;;;;;;;22.67;13.20;;;;;;;;;;4896753;29;20028;-64
2021/11/26 04:05:53;;;;;;;20.45;12.43;;;;;;;;;;4896787;29;20042;-63
2021/11/26 04:08:19;;;;;;;20.45;12.23;;;;;;;;;;4896702;29;20021;-64
2021/11/26 04:10:46;;;;;;;23.15;13.48;;;;;;;;;;4896580;29;20025;-63
2021/11/26 04:13:13;;;;;;;21.80;12.32;;;;;;;;;;4896125;29;20028;-64
2021/11/26 04:15:39;;;;;;;23.05;12.43;;;;;;;;;;4896935;29;20575;-63
2021/11/26 04:18:06;;;;;;;24.00;12.88;;;;;;;;;;4896216;29;20056;-63
2021/11/26 04:20:33;;;;;;;19.83;12.65;;;;;;;;;;4896588;29;20063;-64
2021/11/26 04:22:59;;;;;;;21.55;12.85;;;;;;;;;;4895993;29;20071;-64
2021/11/26 04:25:25;;;;;;;21.83;13.23;;;;;;;;;;4896427;29;20500;-66
2021/11/26 04:27:51;;;;;;;22.60;12.55;;;;;;;;;;4896314;29;20048;-64
2021/11/26 04:30:18;;;;;;;22.60;13.18;;;;;;;;;;4879546;29;20440;-64
2021/11/26 04:32:46;;;;;;;21.48;12.77;;;;;;;;;;4896392;29;20029;-63
2021/11/26 04:35:12;;;;;;;20.45;12.70;;;;;;;;;;4896136;29;20385;-62
2021/11/26 04:37:38;;;;;;;21.63;12.38;;;;;;;;;;4896261;29;20060;-63
2021/11/26 04:40:05;;;;;;;20.60;12.52;;;;;;;;;;4895750;29;20477;-63
2021/11/26 04:42:32;;;;;;;19.48;11.57;;;;;;;;;;4895889;29;20044;-64
2021/11/26 04:44:58;;;;;;;20.65;12.35;;;;;;;;;;4896120;29;20048;-65
2021/11/26 04:47:24;;;;;;;20.73;12.70;;;;;;;;;;4896429;29;20439;-63
2021/11/26 04:49:50;;;;;;;18.63;10.65;;;;;;;;;;4895807;29;20032;-62
2021/11/26 04:52:16;;;;;;;19.58;12.40;;;;;;;;;;4895808;29;20112;-62
2021/11/26 04:54:42;;;;;;;19.83;11.65;;;;;;;;;;4895838;29;20033;-63
2021/11/26 04:57:08;;;;;;;20.13;12.00;;;;;;;;;;4895803;29;20028;-64
2021/11/26 04:59:34;;;;;;;16.92;10.55;;;;;;;;;;4895993;29;20040;-63
2021/11/26 05:02:00;;;;;;;17.85;11.38;;;;;;;;;;4895868;29;20115;-64
2021/11/26 05:04:26;;;;;;;21.77;13.13;;;;;;;;;;4895639;29;20069;-65
2021/11/26 05:06:52;;;;;;;23.25;12.50;;;;;;;;;;4895817;29;20029;-64
2021/11/26 05:09:18;;;;;;;20.92;11.93;;;;;;;;;;4895532;29;20116;-65
2021/11/26 05:11:45;;;;;;;19.77;11.20;;;;;;;;;;4895680;29;20541;-65
2021/11/26 05:14:17;;;;;;;20.75;11.77;;;;;;;;;;4895981;29;20051;-64
2021/11/26 05:16:43;;;;;;;21.92;11.75;;;;;;;;;;4895582;29;20049;-64
2021/11/26 05:19:09;;;;;;;23.25;13.32;;;;;;;;;;4895566;29;20056;-64
2021/11/26 05:21:35;;;;;;;23.33;13.43;;;;;;;;;;4895762;29;20081;-62
2021/11/26 05:24:01;;;;;;;21.92;12.93;;;;;;;;;;4895235;29;20028;-63
2021/11/26 05:26:27;;;;;;;20.88;12.23;;;;;;;;;;4895776;29;20040;-64
2021/11/26 05:28:53;;;;;;;22.15;12.10;;;;;;;;;;4895674;29;20508;-63
2021/11/26 05:31:20;;;;;;;20.58;12.00;;;;;;;;;;4895654;29;20036;-63
2021/11/26 05:33:47;;;;;;;22.35;13.25;;;;;;;;;;4896676;29;20053;-64
2021/11/26 05:36:13;;;;;;;24.13;13.48;;;;;;;;;;4899244;29;20032;-63
2021/11/26 05:38:39;;;;;;;26.80;14.02;;;;;;;;;;4899272;29;20215;-63
2021/11/26 05:41:05;;;;;;;29.75;15.23;;;;;;;;;;4899125;29;20036;-62
2021/11/26 05:43:31;;;;;;;25.27;14.68;;;;;;;;;;4899074;29;20096;-62
2021/11/26 05:45:57;;;;;;;29.02;15.20;;;;;;;;;;4899190;29;20040;-63
2021/11/26 05:48:23;;;;;;;25.23;14.20;;;;;;;;;;4899154;29;20492;-63
2021/11/26 05:50:49;;;;;;;27.77;14.65;;;;;;;;;;4899077;29;20032;-65
2021/11/26 05:53:15;;;;;;;26.95;13.98;;;;;;;;;;4898944;29;20032;-64
2021/11/26 05:55:41;;;;;;;26.25;14.15;;;;;;;;;;4898688;29;20041;-64
2021/11/26 05:58:07;;;;;;;20.77;12.23;;;;;;;;;;4898717;29;20020;-64
2021/11/26 06:00:34;;;;;;;22.85;12.82;;;;;;;;;;4898444;29;20488;-64
2021/11/26 06:03:00;;;;;;;21.15;12.38;;;;;;;;;;4898450;29;20025;-65
2021/11/26 06:05:27;;;;;;;22.00;11.35;;;;;;;;;;4898063;29;20071;-63
2021/11/26 06:07:54;;;;;;;22.67;13.02;;;;;;;;;;4898764;29;20029;-65
2021/11/26 06:10:21;;;;;;;23.67;13.02;;;;;;;;;;4881489;29;20545;-64
2021/11/26 06:12:47;;;;;;;23.17;13.05;;;;;;;;;;4898157;29;20093;-63
2021/11/26 06:15:15;;;;;;;25.63;13.55;;;;;;;;;;4898493;29;20024;-64
2021/11/26 06:17:41;;;;;;;21.67;12.82;;;;;;;;;;4897895;29;20412;-63
2021/11/26 06:20:08;;;;;;;21.02;11.65;;;;;;;;;;4898398;29;20033;-64
2021/11/26 06:22:34;;;;;;;20.73;10.95;;;;;;;;;;4898009;29;20457;-65
2021/11/26 06:25:00;;;;;;;20.85;12.27;;;;;;;;;;4898405;29;20043;-65
2021/11/26 06:27:27;;;;;;;23.50;12.80;;;;;;;;;;4898443;29;20104;-63
2021/11/26 06:29:53;;;;;;;20.83;11.65;;;;;;;;;;4898178;29;20072;-63
2021/11/26 06:32:20;;;;;;;23.35;12.43;;;;;;;;;;4898042;29;20024;-62
2021/11/26 06:34:46;;;;;;;22.73;12.60;;;;;;;;;;4880786;29;20682;-64
2021/11/26 06:37:12;;;;;;;19.70;12.25;;;;;;;;;;4898143;29;20512;-62
2021/11/26 06:39:39;;;;;;;21.77;11.48;;;;;;;;;;4897836;29;20036;-62
2021/11/26 06:42:05;;;;;;;22.02;12.38;;;;;;;;;;4897812;29;20029;-63
2021/11/26 06:44:31;;;;;;;25.63;12.45;;;;;;;;;;4897864;29;20032;-65
2021/11/26 06:46:57;;;;;;;25.30;11.77;;;;;;;;;;4897591;29;20486;-64
2021/11/26 06:49:23;;;;;;;23.77;12.85;;;;;;;;;;4897787;29;20039;-68
2021/11/26 06:51:49;;;;;;;24.33;13.02;;;;;;;;;;4897861;29;20032;-68
2021/11/26 06:54:15;;;;;;;28.52;14.85;;;;;;;;;;4897570;29;20366;-68
2021/11/26 06:56:41;;;;;;;23.30;13.15;;;;;;;;;;4897580;29;20040;-68
2021/11/26 06:59:07;;;;;;;23.15;12.95;;;;;;;;;;4897641;29;20032;-66
2021/11/26 07:01:33;;;;;;;24.17;13.10;;;;;;;;;;4897502;29;20171;-66
2021/11/26 07:04:00;;;;;;;22.55;11.95;;;;;;;;;;4897669;29;20044;-66
2021/11/26 07:06:26;;;;;;;21.95;11.45;;;;;;;;;;4897808;29;20080;-64
2021/11/26 07:08:52;;;;;;;21.48;11.80;;;;;;;;;;4897213;29;20063;-64
2021/11/26 07:11:18;;;;;;;19.95;11.25;;;;;;;;;;4897086;29;20512;-64
2021/11/26 07:13:45;;;;;;;19.88;11.35;;;;;;;;;;4897178;29;20028;-64
2021/11/26 07:16:11;;;;;;;20.35;11.18;;;;;;;;;;4897140;29;20053;-65
2021/11/26 07:18:37;;;;;;;18.65;11.25;;;;;;;;;;4897291;29;20389;-65
2021/11/26 07:21:03;;;;;;;18.70;11.13;;;;;;;;;;4880278;29;20040;-66
2021/11/26 07:23:29;;;;;;;20.67;11.63;;;;;;;;;;4897411;29;20044;-66
2021/11/26 07:25:55;;;;;;;19.40;11.50;;;;;;;;;;4897050;29;20044;-64
2021/11/26 07:28:23;;;;;;;20.42;11.43;;;;;;;;;;4896931;29;20058;-66
2021/11/26 07:30:49;;;;;;;18.73;11.02;;;;;;;;;;4897162;29;20025;-65
2021/11/26 07:33:16;;;;;;;21.25;11.98;;;;;;;;;;4896940;29;20127;-65
2021/11/26 07:35:42;;;;;;;17.10;10.88;;;;;;;;;;4897028;29;20574;-66
2021/11/26 07:38:08;;;;;;;18.88;11.48;;;;;;;;;;4897195;29;20033;-68
2021/11/26 07:40:34;;;;;;;17.60;10.60;;;;;;;;;;4897017;29;20564;-64
2021/11/26 07:43:00;;;;;;;16.10;9.85;;;;;;;;;;4897246;29;20051;-65
2021/11/26 07:45:26;;;;;;;16.35;10.77;;;;;;;;;;4897079;29;20397;-65
2021/11/26 07:47:52;;;;;;;18.65;11.02;;;;;;;;;;4897143;29;20516;-65
2021/11/26 07:50:19;;;;;;;18.67;11.10;;;;;;;;;;4896944;29;20032;-63
2021/11/26 07:52:45;;;;;;;16.88;10.18;;;;;;;;;;4897008;29;20025;-63
2021/11/26 07:55:11;;;;;;;21.25;11.60;;;;;;;;;;4896686;29;20093;-63
2021/11/26 07:57:40;;;;;;;22.50;10.95;;;;;;;;;;4895819;29;20032;-63
2021/11/26 08:00:06;;;;;;;20.65;11.23;;;;;;;;;;4896729;29;20500;-64
2021/11/26 08:02:33;;;;;;;22.08;11.80;;;;;;;;;;4896708;29;20390;-64
2021/11/26 08:04:59;;;;;;;19.73;11.82;;;;;;;;;;4880078;29;20032;-64
2021/11/26 08:07:25;;;;;;;17.48;10.93;;;;;;;;;;4896359;29;20132;-63
2021/11/26 08:09:51;;;;;;;23.02;13.50;;;;;;;;;;4895225;29;20024;-61
2021/11/26 08:12:17;;;;;;;19.77;11.40;;;;;;;;;;4895950;29;20064;-62
2021/11/26 08:14:43;;;;;;;21.45;11.82;;;;;;;;;;4896694;29;20028;-62
2021/11/26 08:17:09;;;;;;;20.25;11.25;;;;;;;;;;4896014;29;20140;-63
2021/11/26 08:19:35;;;;;;;20.75;11.40;;;;;;;;;;4895911;29;20115;-63
2021/11/26 08:22:01;;;;;;;22.45;11.18;;;;;;;;;;4895875;29;20028;-62
2021/11/26 08:24:28;;;;;;;21.20;11.63;;;;;;;;;;4879008;29;20037;-62
2021/11/26 08:26:55;;;;;;;18.13;10.35;;;;;;;;;;4895821;29;20028;-64
2021/11/26 08:29:21;;;;;;;19.33;10.98;;;;;;;;;;4895905;29;20033;-62
2021/11/26 08:31:47;;;;;;;18.52;11.77;;;;;;;;;;4895994;29;20028;-62
2021/11/26 08:34:13;;;;;;;20.25;12.25;;;;;;;;;;4895875;29;20028;-62
2021/11/26 08:36:40;;;;;;;19.33;11.43;;;;;;;;;;4895907;29;20028;-62
2021/11/26 08:39:07;;;;;;;20.70;11.02;;;;;;;;;;4896096;29;20028;-62
2021/11/26 08:41:33;;;;;;;21.42;12.38;;;;;;;;;;4895498;29;20491;-63
2021/11/26 08:44:00;;;;;;;23.85;12.57;;;;;;;;;;4895548;29;20067;-63
2021/11/26 08:46:26;;;;;;;22.25;11.82;;;;;;;;;;4895845;29;20051;-63
2021/11/26 08:48:52;;;;;;;19.25;11.90;;;;;;;;;;4878617;29;20402;-63
2021/11/26 08:51:20;;;;;;;20.42;11.38;;;;;;;;;;4895694;29;20044;-63
2021/11/26 08:53:46;;;;;;;21.80;11.20;;;;;;;;;;4895929;29;20017;-61
2021/11/26 08:56:18;;;;;;;21.20;12.60;;;;;;;;;;4895563;29;20032;-64
2021/11/26 08:58:46;;;;;;;20.60;11.32;;;;;;;;;;4895509;29;20029;-63
2021/11/26 09:01:13;;;;;;;20.10;11.98;;;;;;;;;;4895933;29;20393;-62
2021/11/26 09:03:39;;;;;;;22.45;12.55;;;;;;;;;;4895512;29;20059;-64
2021/11/26 09:06:05;;;;;;;19.08;11.70;;;;;;;;;;4895625;29;20412;-63
2021/11/26 09:08:32;;;;;;;20.25;11.93;;;;;;;;;;4895910;29;20024;-63
2021/11/26 09:10:58;;;;;;;18.92;11.93;;;;;;;;;;4899108;29;20036;-63
2021/11/26 09:13:24;;;;;;;23.27;12.90;;;;;;;;;;4899927;29;20381;-63
2021/11/26 09:15:50;;;;;;;21.92;12.93;;;;;;;;;;4899089;29;20064;-63
2021/11/26 09:18:17;;;;;;;22.83;11.90;;;;;;;;;;4899105;29;20049;-62
2021/11/26 09:20:43;;;;;;;23.88;11.77;;;;;;;;;;4899344;29;20051;-62
2021/11/26 09:23:10;;;;;;;22.02;12.05;;;;;;;;;;4899036;29;20084;-62
2021/11/26 09:25:36;;;;;;;23.45;12.68;;;;;;;;;;4898793;29;20041;-62
2021/11/26 09:28:03;;;;;;;20.42;11.40;;;;;;;;;;4899135;29;20481;-62
2021/11/26 09:30:31;;;;;;;21.35;12.63;;;;;;;;;;4898934;29;20556;-63
2021/11/26 09:32:57;;;;;;;25.27;14.27;;;;;;;;;;4899221;29;20172;-62
2021/11/26 09:35:25;;;;;;;26.08;13.82;;;;;;;;;;4899225;29;20028;-62
2021/11/26 09:37:52;;;;;;;24.73;13.30;;;;;;;;;;4898967;29;20091;-62
2021/11/26 09:40:19;;;;;;;26.60;13.98;;;;;;;;;;4899206;29;20064;-63
2021/11/26 09:42:46;;;;;;;27.80;14.45;;;;;;;;;;4898829;29;20031;-63
2021/11/26 09:45:16;;;;;;;28.20;14.77;;;;;;;;;;4898343;29;20097;-63
2021/11/26 09:47:42;;;;;;;27.42;14.13;;;;;;;;;;4899207;29;20052;-63
2021/11/26 09:50:08;;;;;;;26.48;14.48;;;;;;;;;;4898845;29;20054;-63
2021/11/26 09:52:39;;;;;;;25.50;14.05;;;;;;;;;;4898931;29;20056;-62
2021/11/26 09:55:05;;;;;;;25.73;13.45;;;;;;;;;;4898593;29;20028;-62
2021/11/26 09:57:31;;;;;;;22.85;12.95;;;;;;;;;;4898384;29;20032;-63
2021/11/26 09:59:57;;;;;;;22.23;11.63;;;;;;;;;;4898674;29;20277;-63
2021/11/26 10:02:24;;;;;;;21.35;11.93;;;;;;;;;;4898559;29;20111;-62
2021/11/26 10:05:05;;;;;;;21.80;12.60;;;;;;;;;;4898536;29;20108;-62
2021/11/26 10:07:31;;;;;;;20.90;11.18;;;;;;;;;;4898850;29;20465;-62
2021/11/26 10:10:10;;;;;;;19.58;11.77;;;;;;;;;;4898339;29;20043;-63
2021/11/26 10:12:36;;;;;;;22.98;12.73;;;;;;;;;;4898496;29;20036;-62
2021/11/26 10:15:05;;;;;;;22.13;12.52;;;;;;;;;;4898229;29;20115;-62
2021/11/26 10:17:31;;;;;;;24.70;13.68;;;;;;;;;;4897729;29;20099;-62
2021/11/26 10:19:58;;;;;;;20.30;12.00;;;;;;;;;;4897780;29;20036;-62
2021/11/26 10:22:36;;;;;;;24.42;12.32;;;;;;;;;;4897704;29;20140;-62
2021/11/26 10:25:11;;;;;;;23.05;12.93;;;;;;;;;;4898011;29;20040;-63
2021/11/26 10:27:38;;;;;;;25.58;13.35;;;;;;;;;;4897687;29;20035;-63
2021/11/26 10:30:10;;;;;;;22.40;13.00;;;;;;;;;;4898058;29;20021;-63
2021/11/26 10:32:36;;;;;;;26.13;12.98;;;;;;;;;;4898052;29;20028;-63
2021/11/26 10:35:03;;;;;;;22.25;12.07;;;;;;;;;;4897883;29;20068;-63
2021/11/26 10:37:30;;;;;;;20.27;12.70;;;;;;;;;;4897774;29;20017;-62
2021/11/26 10:39:56;;;;;;;24.77;13.75;;;;;;;;;;4898010;29;20033;-63
2021/11/26 10:42:29;;;;;;;22.25;12.38;;;;;;;;;;4897510;29;20029;-61
2021/11/26 10:44:59;;;;;;;26.77;14.07;;;;;;;;;;4897703;29;20037;-61
2021/11/26 10:47:39;;;;;;;22.60;13.70;;;;;;;;;;4897420;29;20127;-61
2021/11/26 11:01:08;;;;;;;25.08;14.57;;;;;;;;;;4897444;29;20036;-62
2021/11/26 11:03:34;;;;;;;26.38;13.88;;;;;;;;;;4897785;29;20045;-62
2021/11/26 11:06:00;;;;;;;26.08;15.30;;;;;;;;;;4897236;29;20120;-62
2021/11/26 11:08:26;;;;;;;23.80;14.18;;;;;;;;;;4897013;29;20029;-62
2021/11/26 11:10:53;;;;;;;23.85;13.38;;;;;;;;;;4897212;29;20045;-62
2021/11/26 11:13:25;;;;;;;26.52;15.20;;;;;;;;;;4896936;29;20020;-61
2021/11/26 11:15:51;;;;;;;26.95;15.52;;;;;;;;;;4896869;29;20057;-62
2021/11/26 11:18:18;;;;;;;28.30;15.82;;;;;;;;;;4897335;29;20105;-61
2021/11/26 11:20:44;;;;;;;24.55;15.13;;;;;;;;;;4880019;29;20033;-62
2021/11/26 11:23:11;;;;;;;27.13;15.73;;;;;;;;;;4896721;29;20028;-62
2021/11/26 11:25:38;;;;;;;27.55;15.95;;;;;;;;;;4896912;29;20047;-63
2021/11/26 11:28:06;;;;;;;26.30;16.48;;;;;;;;;;4896603;29;20032;-62
2021/11/26 11:30:32;;;;;;;30.80;15.85;;;;;;;;;;4896943;29;20068;-62
2021/11/26 11:32:59;;;;;;;23.75;14.35;;;;;;;;;;4896419;29;20111;-62
2021/11/26 11:35:26;;;;;;;29.75;15.45;;;;;;;;;;4896836;29;20112;-62
2021/11/26 11:37:54;;;;;;;28.27;16.50;;;;;;;;;;4896393;29;20420;-63
2021/11/26 11:40:24;;;;;;;28.15;16.45;;;;;;;;;;4896728;29;20043;-63
2021/11/26 11:42:50;;;;;;;30.48;16.92;;;;;;;;;;4896053;29;20558;-62
2021/11/26 11:45:22;;;;;;;27.85;16.13;;;;;;;;;;4896596;29;20378;-61
2021/11/26 11:47:50;;;;;;;22.98;13.27;;;;;;;;;;4896788;29;20029;-61
2021/11/26 11:50:19;;;;;;;30.13;16.67;;;;;;;;;;4896604;29;20055;-62
2021/11/26 11:52:53;;;;;;;29.70;17.08;;;;;;;;;;4896501;29;20469;-63
2021/11/26 11:55:24;;;;;;;27.67;16.33;;;;;;;;;;4896344;29;20024;-61
2021/11/26 11:57:52;;;;;;;27.45;14.82;;;;;;;;;;4896020;29;20025;-61
2021/11/26 12:00:20;;;;;;;29.50;15.95;;;;;;;;;;4896188;29;20529;-62
2021/11/26 12:02:47;;;;;;;27.15;14.80;;;;;;;;;;4896493;29;20025;-61
2021/11/26 12:05:24;;;;;;;28.33;15.93;;;;;;;;;;4896674;29;20033;-63
2021/11/26 12:07:51;;;;;;;24.45;13.45;;;;;;;;;;4896640;29;20031;-62
2021/11/26 12:10:17;;;;;;;21.10;11.40;;;;;;;;;;4896585;29;20039;-62
2021/11/26 12:12:49;;;;;;;19.95;11.70;;;;;;;;;;4896613;29;20033;-61
2021/11/26 12:15:28;;;;;;;17.10;10.93;;;;;;;;;;4896359;29;20032;-61
2021/11/26 12:18:05;;;;;;;14.98;8.43;;;;;;;;;;4895717;29;20116;-61
2021/11/26 12:20:32;;;;;;;16.15;9.77;;;;;;;;;;4896111;29;20048;-61
2021/11/26 12:23:04;;;;;;;14.55;8.30;;;;;;;;;;4896195;29;20025;-62
2021/11/26 12:26:02;;;;;;;14.82;8.23;;;;;;;;;;4895719;29;20422;-63
2021/11/26 12:28:36;;;;;;;15.45;8.68;;;;;;;;;;4894586;29;20032;-64
2021/11/26 12:31:06;;;;;;;14.30;8.48;;;;;;;;;;4893058;29;20454;-63
2021/11/26 12:33:33;;;;;;;15.65;8.27;;;;;;;;;;4894504;29;20024;-62
2021/11/26 12:36:01;;;;;;;14.93;8.57;;;;;;;;;;4896822;29;20077;-64
2021/11/26 12:38:38;;;;;;;15.20;8.68;;;;;;;;;;4894642;29;20084;-62
2021/11/26 12:41:04;;;;;;;15.32;8.35;;;;;;;;;;4891985;29;20059;-62
2021/11/26 12:43:39;;;;;;;13.55;7.60;;;;;;;;;;4894716;29;20063;-62
2021/11/26 12:46:06;;;;;;;13.43;7.90;;;;;;;;;;4895452;29;20059;-61
2021/11/26 12:48:36;;;;;;;13.15;7.70;;;;;;;;;;4895742;29;20032;-63
2021/11/26 12:51:05;;;;;;;12.32;7.93;;;;;;;;;;4895323;29;20111;-62
2021/11/26 12:53:32;;;;;;;13.85;8.48;;;;;;;;;;4895550;29;20358;-63
2021/11/26 12:55:59;;;;;;;15.80;8.43;;;;;;;;;;4895638;29;20024;-61
2021/11/26 12:58:26;;;;;;;13.60;7.78;;;;;;;;;;4895355;29;20027;-63
2021/11/26 13:00:56;;;;;;;12.85;7.20;;;;;;;;;;4895001;29;20083;-63
2021/11/26 13:03:23;;;;;;;12.57;7.18;;;;;;;;;;4895513;29;20060;-61
2021/11/26 13:05:55;;;;;;;11.20;7.10;;;;;;;;;;4895672;29;20103;-62
2021/11/26 13:08:21;;;;;;;14.07;7.75;;;;;;;;;;4895260;29;20108;-67
2021/11/26 13:10:48;;;;;;;13.55;8.20;;;;;;;;;;4895377;29;20481;-66
2021/11/26 13:13:14;;;;;;;13.32;8.20;;;;;;;;;;4895035;29;20036;-65
2021/11/26 13:15:40;;;;;;;14.38;8.05;;;;;;;;;;4894907;29;20159;-67
2021/11/26 13:18:10;;;;;;;16.35;8.27;;;;;;;;;;4894897;29;20144;-68
2021/11/26 13:20:37;;;;;;;13.00;7.65;;;;;;;;;;4895545;29;20056;-65
2021/11/26 13:23:07;;;;;;;12.48;6.88;;;;;;;;;;4895084;29;20032;-63
2021/11/26 13:25:41;;;;;;;14.80;7.68;;;;;;;;;;4894685;29;20041;-61
2021/11/26 13:28:11;;;;;;;12.27;7.28;;;;;;;;;;4895183;29;20021;-66
2021/11/26 13:30:42;;;;;;;13.70;8.10;;;;;;;;;;4895155;29;20033;-62
2021/11/26 13:33:13;;;;;;;13.15;8.02;;;;;;;;;;4895437;29;20031;-61
2021/11/26 13:35:43;;;;;;;16.10;8.90;;;;;;;;;;4895207;29;20046;-62
2021/11/26 13:38:10;;;;;;;12.80;7.30;;;;;;;;;;4894786;29;20060;-63
2021/11/26 13:40:41;;;;;;;12.27;7.25;;;;;;;;;;4894889;29;20032;-61
2021/11/26 13:43:08;;;;;;;17.17;9.27;;;;;;;;;;4893687;29;20126;-63
2021/11/26 13:45:36;;;;;;;12.93;7.93;;;;;;;;;;4893752;29;20043;-60
2021/11/26 13:48:02;;;;;;;15.57;8.80;;;;;;;;;;4893977;29;20041;-59
2021/11/26 13:50:32;;;;;;;13.88;7.97;;;;;;;;;;4893657;29;20039;-63
2021/11/26 13:52:58;;;;;;;11.80;7.78;;;;;;;;;;4891399;29;20029;-63
2021/11/26 13:55:24;;;;;;;12.60;7.90;;;;;;;;;;4895787;29;20076;-62
2021/11/26 13:57:50;;;;;;;13.77;7.30;;;;;;;;;;4896929;29;20106;-62
2021/11/26 14:00:19;;;;;;;13.63;7.97;;;;;;;;;;4897411;29;20048;-62
2021/11/26 14:02:57;;;;;;;14.27;7.80;;;;;;;;;;4897226;29;20024;-59
2021/11/26 14:05:30;;;;;;;14.75;8.23;;;;;;;;;;4896458;29;20052;-64
2021/11/26 14:08:00;;;;;;;15.10;8.55;;;;;;;;;;4897045;29;20449;-60
2021/11/26 14:10:26;;;;;;;17.55;9.80;;;;;;;;;;4896640;29;20032;-61
2021/11/26 14:13:02;;;;;;;17.70;8.70;;;;;;;;;;4896682;29;20033;-60
2021/11/26 14:15:28;;;;;;;15.07;8.52;;;;;;;;;;4895574;29;20024;-62
2021/11/26 14:17:54;;;;;;;16.38;8.80;;;;;;;;;;4896516;29;20083;-62
2021/11/26 14:20:25;;;;;;;15.15;8.32;;;;;;;;;;4896997;29;20035;-64
2021/11/26 14:22:52;;;;;;;11.63;7.03;;;;;;;;;;4896693;29;20060;-64
2021/11/26 14:25:19;;;;;;;13.52;6.80;;;;;;;;;;4894643;29;20037;-62
2021/11/26 14:27:46;;;;;;;13.07;7.45;;;;;;;;;;4897216;29;20036;-62
2021/11/26 14:30:15;;;;;;;12.65;6.78;;;;;;;;;;4897943;29;20072;-62